Brainerd Lakes Regional Airport
KBRD : now visible

Airfield :











YOU CAN JOIN US ON...

 
LOGIN :

Register | Disclaimer

   EN    FR    IT 

 









Legend :    VFR   Marginal VFR   IFR   Intensive IFR   Very Intensive IFR
Visi :
Ceiling :
>= 8 km
>= 3000ft
5 to 8 km
1000 to 3000 ft
1500m to 5 km
500 to 1000 ft
800 to 1500m
200 to 500 ft
< 800m
< 200 ft
Symbols :   Thunderstorms  Fog  Heavy snow  Heavy precipitations  Wind > 20 kt






- Airport Elevation : 1232 ft


KBRD - Brainerd Lakes Regional

CURRENT METAR :
  • 041653Z AUTO VRB03KT 10SM FEW070 23/10 A3016 RMK AO2 SLP212 T02330100

EXPIRED METARs :
  • 041553Z AUTO 27007KT 10SM CLR 22/09 A3017 RMK AO2 SLP215 T02220094
  • 041453Z AUTO 28004KT 10SM CLR 21/11 A3016 RMK AO2 SLP214 T02110106 56001

TAF KBRD
Valid from the 04 at 11:00 until the 05 at 12:00 UTC


041121Z 0411/0512 VRB03KT P6SM FEW060
KZMP FIR / North America



MET'MAP, your aeronautical weather chart ! - Copyright ORBIFLY December 2007 - Disclaimer

ORBIFLY MET'MAP TEAM :

Programming & Development : Alexandra Zaïnal
Concept & original design : Baudouin d'Aumeries
Assistance for programming : Marc-Olivier Méhu
Technical & hardware support : Manuel Goepfert

Contact : metmap@orbifly.com




SOURCES & CREDITS :

   NOAA       Earth
Advisory